Time;durP1;ratioP1;P1;durP2;ratioP2;P2;SDS_P1;SDS_P2;PMS_P1;PMS_P2;Temp;Humidity;BMP_temperature;BMP_pressure;BME280_temperature;BME280_humidity;BME280_pressure;Samples;Min_cycle;Max_cycle;Signal;HPM_P1;HPM_P2
2021/12/13 00:01:04;;;;;;;17.80;12.10;;;3.20;99.90;;;;;;4979144;28;20180;-74
2021/12/13 00:03:38;;;;;;;20.73;13.23;;;3.20;99.90;;;;;;4979301;28;20179;-74
2021/12/13 00:06:11;;;;;;;15.93;11.67;;;3.20;99.90;;;;;;4998768;28;20735;-75
2021/12/13 00:08:39;;;;;;;15.03;11.77;;;3.10;99.90;;;;;;4979146;28;20179;-74
2021/12/13 00:11:12;;;;;;;30.43;15.93;;;3.10;99.90;;;;;;4979031;28;20191;-74
2021/12/13 00:13:43;;;;;;;28.87;16.70;;;3.10;99.90;;;;;;4985639;28;20603;-74
2021/12/13 00:16:11;;;;;;;37.50;19.07;;;3.20;99.90;;;;;;5002874;28;20200;-74
2021/12/13 00:18:43;;;;;;;54.10;24.63;;;3.10;99.90;;;;;;4996418;28;20662;-74
2021/12/13 00:21:14;;;;;;;18.47;13.07;;;3.10;99.90;;;;;;4996272;28;20172;-74
2021/12/13 00:23:52;;;;;;;26.67;15.80;;;3.10;99.90;;;;;;4996343;28;20199;-74
2021/12/13 00:26:26;;;;;;;13.23;10.23;;;3.20;99.90;;;;;;4996455;28;20580;-74
2021/12/13 00:28:51;;;;;;;19.80;12.03;;;3.30;99.90;;;;;;4978911;28;20184;-74
2021/12/13 00:31:33;;;;;;;13.30;11.07;;;3.20;99.90;;;;;;4978761;28;20180;-74
2021/12/13 00:34:29;;;;;;;12.10;10.80;;;3.20;99.90;;;;;;4995787;28;20168;-74
2021/12/13 00:37:14;;;;;;;12.17;9.57;;;3.10;99.90;;;;;;4995669;28;20231;-75
2021/12/13 00:39:45;;;;;;;17.40;12.13;;;3.10;99.90;;;;;;4996112;28;20186;-74
2021/12/13 00:42:12;;;;;;;16.67;11.17;;;3.10;99.90;;;;;;4978094;28;20172;-74
2021/12/13 00:44:43;;;;;;;12.67;10.07;;;3.10;99.90;;;;;;4996199;28;20195;-74
2021/12/13 00:47:20;;;;;;;12.63;11.30;;;3.10;99.90;;;;;;4978375;28;20211;-74
2021/12/13 00:49:53;;;;;;;14.60;11.57;;;3.10;99.90;;;;;;4995970;28;20266;-74
2021/12/13 00:52:19;;;;;;;14.17;12.57;;;3.20;99.90;;;;;;4978017;28;20255;-75
2021/12/13 00:54:47;;;;;;;15.47;12.37;;;3.20;99.90;;;;;;4994270;28;20206;-75
2021/12/13 00:57:53;;;;;;;17.07;12.07;;;3.30;99.90;;;;;;4976860;28;20682;-75
2021/12/13 01:00:26;;;;;;;14.97;12.27;;;3.30;99.90;;;;;;4991076;28;20194;-74
2021/12/13 01:03:02;;;;;;;13.83;11.73;;;3.30;99.90;;;;;;4976637;28;20530;-75
2021/12/13 01:06:07;;;;;;;15.57;12.53;;;3.40;99.90;;;;;;4993744;28;20227;-74
2021/12/13 01:08:53;;;;;;;14.33;11.77;;;3.40;99.90;;;;;;4994062;28;20175;-74
2021/12/13 01:11:31;;;;;;;12.87;11.57;;;3.40;99.90;;;;;;4993944;28;20202;-74
2021/12/13 01:14:26;;;;;;;15.37;11.40;;;3.40;99.90;;;;;;4993791;28;20270;-74
2021/12/13 01:19:50;;;;;;;14.70;12.30;;;3.40;99.90;;;;;;4993742;28;20556;-75
2021/12/13 01:22:41;;;;;;;13.67;11.60;;;3.30;99.90;;;;;;4976725;28;21048;-75
2021/12/13 01:25:39;;;;;;;14.40;11.97;;;3.30;99.90;;;;;;4993569;28;20246;-75
2021/12/13 01:28:20;;;;;;;14.77;12.33;;;3.30;99.90;;;;;;4994723;28;20586;-74
2021/12/13 01:30:56;;;;;;;11.83;10.63;;;3.20;99.90;;;;;;4977401;28;20210;-75
2021/12/13 01:33:24;;;;;;;13.20;10.73;;;3.20;99.90;;;;;;4993527;28;20184;-75
2021/12/13 01:35:53;;;;;;;15.70;11.70;;;3.20;99.90;;;;;;4993168;28;20772;-75
2021/12/13 01:38:33;;;;;;;15.60;11.07;;;3.20;99.90;;;;;;4993167;28;20239;-74
2021/12/13 01:41:08;;;;;;;13.93;10.97;;;3.20;99.90;;;;;;4993473;28;20318;-74
2021/12/13 01:43:36;;;;;;;13.43;10.77;;;3.20;99.90;;;;;;4993786;28;20546;-74
2021/12/13 01:46:01;;;;;;;15.70;12.60;;;3.20;99.90;;;;;;4992262;28;20230;-75
2021/12/13 01:48:36;;;;;;;17.17;12.73;;;3.30;99.90;;;;;;4993178;28;20584;-75
2021/12/13 01:51:06;;;;;;;15.37;12.33;;;3.40;99.90;;;;;;4977111;28;20239;-74
2021/12/13 01:53:46;;;;;;;14.60;11.20;;;3.40;99.90;;;;;;4994331;28;20180;-74
2021/12/13 01:56:53;;;;;;;12.03;10.17;;;3.30;99.90;;;;;;4994596;28;20689;-74
2021/12/13 02:02:22;;;;;;;12.13;10.40;;;3.10;99.90;;;;;;4988424;28;20183;-74
2021/12/13 02:05:22;;;;;;;15.30;11.80;;;3.10;99.90;;;;;;4994310;28;20640;-74
2021/12/13 02:08:20;;;;;;;12.43;10.67;;;3.10;99.90;;;;;;4969727;28;20669;-74
2021/12/13 02:10:53;;;;;;;14.03;10.87;;;3.20;99.90;;;;;;4978823;28;20199;-74
2021/12/13 02:13:24;;;;;;;13.07;11.27;;;3.20;99.90;;;;;;4993316;28;20172;-74
2021/12/13 02:18:41;;;;;;;15.23;12.60;;;3.40;99.90;;;;;;4992896;28;20278;-75
2021/12/13 02:21:24;;;;;;;13.90;11.93;;;3.20;99.90;;;;;;4991787;28;20176;-74
2021/12/13 02:23:53;;;;;;;12.97;11.20;;;3.30;99.90;;;;;;4992353;28;20247;-74
2021/12/13 02:26:19;;;;;;;11.53;10.43;;;3.30;99.90;;;;;;4990025;28;20184;-75
2021/12/13 02:28:53;;;;;;;12.97;11.60;;;3.30;99.90;;;;;;4990760;28;20180;-74
2021/12/13 02:31:26;;;;;;;12.70;10.87;;;3.30;99.90;;;;;;4992065;28;20820;-75
2021/12/13 02:34:05;;;;;;;17.33;11.27;;;3.30;99.90;;;;;;4991932;28;20184;-75
2021/12/13 02:36:47;;;;;;;13.73;11.33;;;3.30;99.90;;;;;;4991862;28;20609;-74
2021/12/13 02:39:25;;;;;;;14.30;12.80;;;3.30;99.90;;;;;;4991134;28;20670;-75
2021/12/13 02:41:52;;;;;;;12.03;10.80;;;3.20;99.90;;;;;;4973642;28;20186;-74
2021/12/13 02:44:24;;;;;;;12.43;11.00;;;3.30;99.90;;;;;;4974286;28;20202;-74
2021/12/13 02:46:53;;;;;;;12.17;10.77;;;3.50;99.90;;;;;;4992057;28;20179;-74
2021/12/13 02:49:19;;;;;;;12.87;10.70;;;3.30;99.90;;;;;;4991497;28;20184;-75
2021/12/13 02:51:47;;;;;;;11.60;10.47;;;3.20;99.90;;;;;;4991868;28;20271;-74
2021/12/13 02:54:19;;;;;;;14.50;11.33;;;3.20;99.90;;;;;;4991821;28;20251;-72
2021/12/13 02:56:55;;;;;;;12.83;11.07;;;3.10;99.90;;;;;;4991597;28;20638;-75
2021/12/13 02:59:23;;;;;;;12.33;10.80;;;3.10;99.90;;;;;;4991976;28;20262;-74
2021/12/13 03:01:58;;;;;;;14.20;11.47;;;3.10;99.90;;;;;;4991747;28;20728;-74
2021/12/13 03:04:28;;;;;;;15.97;11.90;;;3.00;99.90;;;;;;4991846;28;20206;-73
2021/12/13 03:07:01;;;;;;;13.93;11.87;;;3.00;99.90;;;;;;4992073;28;20532;-74
2021/12/13 03:09:30;;;;;;;15.43;12.33;;;3.00;99.90;;;;;;4991848;28;20302;-74
2021/12/13 03:11:57;;;;;;;15.53;11.10;;;3.00;99.90;;;;;;4991640;28;20175;-74
2021/12/13 03:14:38;;;;;;;15.13;11.33;;;3.10;99.90;;;;;;4974176;28;20287;-75
2021/12/13 03:17:17;;;;;;;14.40;10.63;;;3.10;99.90;;;;;;4988902;28;20339;-74
2021/12/13 03:19:42;;;;;;;14.40;10.87;;;3.10;99.90;;;;;;4974685;28;20242;-75
2021/12/13 03:22:39;;;;;;;12.07;10.70;;;3.00;99.90;;;;;;4978979;28;20721;-74
2021/12/13 03:25:22;;;;;;;12.33;10.10;;;3.00;99.90;;;;;;4973077;28;20211;-74
2021/12/13 03:28:12;;;;;;;11.80;10.60;;;3.10;99.90;;;;;;4963283;28;20352;-75
2021/12/13 03:30:57;;;;;;;12.37;10.87;;;3.10;99.90;;;;;;4991365;28;20187;-74
2021/12/13 03:33:39;;;;;;;17.03;12.43;;;3.10;99.90;;;;;;4993449;28;20175;-74
2021/12/13 03:36:10;;;;;;;14.97;12.37;;;3.10;99.90;;;;;;4993034;28;20756;-74
2021/12/13 03:38:41;;;;;;;15.07;12.07;;;3.10;99.90;;;;;;5004740;28;20842;-74
2021/12/13 03:41:14;;;;;;;12.80;11.40;;;3.10;99.90;;;;;;4998263;28;20174;-75
2021/12/13 03:43:41;;;;;;;14.70;11.67;;;3.10;99.90;;;;;;4984845;28;20184;-74
2021/12/13 03:46:11;;;;;;;13.63;11.80;;;3.20;99.90;;;;;;4994055;28;20192;-74
2021/12/13 03:48:38;;;;;;;13.90;11.73;;;3.30;99.90;;;;;;4994462;28;20172;-74
2021/12/13 03:51:10;;;;;;;16.57;12.47;;;3.30;99.90;;;;;;4976379;28;20219;-74
2021/12/13 03:53:37;;;;;;;13.33;11.93;;;3.40;99.90;;;;;;4993361;28;20172;-74
2021/12/13 03:56:12;;;;;;;13.40;12.07;;;3.30;99.90;;;;;;4976088;28;20211;-75
2021/12/13 03:58:51;;;;;;;17.23;13.00;;;3.40;99.90;;;;;;4975781;28;20199;-75
2021/12/13 04:01:43;;;;;;;14.93;12.10;;;3.40;99.90;;;;;;4993235;28;20918;-74
2021/12/13 04:04:13;;;;;;;16.00;12.53;;;3.30;99.90;;;;;;4992502;28;20188;-74
2021/12/13 04:06:52;;;;;;;20.57;13.47;;;3.30;99.90;;;;;;4992987;28;20225;-74
2021/12/13 04:09:19;;;;;;;20.23;13.03;;;3.20;99.90;;;;;;4996105;28;20183;-74
2021/12/13 04:11:46;;;;;;;17.93;13.40;;;3.20;99.90;;;;;;4996528;28;20534;-74
2021/12/13 04:14:21;;;;;;;17.60;13.50;;;3.40;99.90;;;;;;4981300;28;20662;-74
2021/12/13 04:17:19;;;;;;;18.40;14.10;;;3.10;99.90;;;;;;4977368;28;20546;-74
2021/12/13 04:19:57;;;;;;;17.30;12.97;;;3.80;99.90;;;;;;4996198;28;20184;-74
2021/12/13 04:22:28;;;;;;;18.90;13.80;;;3.10;99.90;;;;;;4996356;28;20168;-74
2021/12/13 04:25:15;;;;;;;17.80;12.80;;;3.10;99.90;;;;;;4996576;28;20325;-75
2021/12/13 04:27:58;;;;;;;16.00;13.37;;;3.10;99.90;;;;;;4979371;28;20190;-73
2021/12/13 04:30:35;;;;;;;18.00;12.53;;;3.10;99.90;;;;;;4978969;28;20589;-74
2021/12/13 04:33:09;;;;;;;14.20;12.57;;;3.20;99.90;;;;;;4996402;28;20690;-74
2021/12/13 04:35:35;;;;;;;16.03;12.93;;;3.20;99.90;;;;;;5042847;23;20302;-72
2021/12/13 04:38:04;;;;;;;19.03;13.03;;;3.20;99.90;;;;;;5016100;28;20199;-72
2021/12/13 04:40:35;;;;;;;17.57;12.10;;;3.10;99.90;;;;;;4998124;28;20665;-72
2021/12/13 04:43:05;;;;;;;14.93;12.40;;;3.10;99.90;;;;;;4996850;28;20176;-72
2021/12/13 04:45:32;;;;;;;14.67;11.80;;;3.20;99.90;;;;;;5011208;28;20232;-72
2021/12/13 04:48:09;;;;;;;13.43;12.00;;;3.30;99.90;;;;;;5015398;28;20651;-72
2021/12/13 04:50:50;;;;;;;15.40;12.97;;;3.30;99.90;;;;;;5015322;28;20183;-72
2021/12/13 04:53:24;;;;;;;19.17;12.73;;;3.20;99.90;;;;;;5022239;28;20673;-72
2021/12/13 04:55:51;;;;;;;14.40;12.23;;;3.30;99.90;;;;;;5015419;28;20244;-72
2021/12/13 04:58:19;;;;;;;14.63;12.03;;;3.30;99.90;;;;;;4994816;28;20220;-73
2021/12/13 05:00:51;;;;;;;17.33;12.67;;;3.30;99.90;;;;;;5001782;28;20266;-72
2021/12/13 05:03:21;;;;;;;14.90;12.07;;;3.40;99.90;;;;;;5010790;28;20163;-72
2021/12/13 05:05:47;;;;;;;14.13;12.07;;;3.30;99.90;;;;;;5013441;28;20191;-72
2021/12/13 05:08:15;;;;;;;14.87;12.67;;;3.40;99.90;;;;;;5013733;28;20278;-72
2021/12/13 05:10:46;;;;;;;13.90;12.07;;;3.40;99.90;;;;;;5013177;28;20179;-72
2021/12/13 05:13:20;;;;;;;16.13;11.87;;;3.40;99.90;;;;;;5015164;28;20197;-72
2021/12/13 05:16:09;;;;;;;14.83;12.20;;;3.30;99.90;;;;;;5014192;28;20227;-72
2021/12/13 05:18:49;;;;;;;17.30;13.23;;;3.10;99.90;;;;;;5001444;28;20183;-72
2021/12/13 05:21:31;;;;;;;12.53;11.23;;;3.10;99.90;;;;;;4996679;28;20186;-72
2021/12/13 05:24:02;;;;;;;16.70;12.23;;;3.10;99.90;;;;;;5015068;28;20177;-72
2021/12/13 05:26:44;;;;;;;14.83;11.73;;;3.20;99.90;;;;;;4997182;28;20199;-72
2021/12/13 05:29:41;;;;;;;12.30;10.80;;;3.20;99.90;;;;;;5015104;28;20172;-72
2021/12/13 05:32:15;;;;;;;13.50;11.73;;;3.20;99.90;;;;;;5008088;28;20193;-72
2021/12/13 05:34:53;;;;;;;14.87;12.47;;;3.20;99.90;;;;;;5009519;28;20170;-72
2021/12/13 05:37:19;;;;;;;18.17;12.67;;;3.20;99.90;;;;;;5014379;28;20677;-73
2021/12/13 05:40:20;;;;;;;14.80;12.80;;;3.10;99.90;;;;;;4996912;28;20183;-72
2021/12/13 05:42:56;;;;;;;15.37;11.57;;;2.90;99.90;;;;;;4953497;28;20670;-72
2021/12/13 05:45:34;;;;;;;14.70;11.93;;;2.80;99.90;;;;;;4993744;28;20206;-72
2021/12/13 05:48:00;;;;;;;12.97;11.27;;;2.80;99.90;;;;;;5013566;28;20184;-72
2021/12/13 05:50:52;;;;;;;14.47;11.33;;;2.90;99.90;;;;;;4980925;28;20176;-73
2021/12/13 05:53:31;;;;;;;14.20;11.40;;;2.80;99.90;;;;;;5002369;28;20222;-72
2021/12/13 05:56:00;;;;;;;15.03;11.43;;;2.80;99.90;;;;;;4980054;28;20208;-72
2021/12/13 05:58:50;;;;;;;14.80;11.77;;;2.60;99.90;;;;;;4994837;28;20654;-72
2021/12/13 06:01:22;;;;;;;14.23;11.60;;;2.60;99.90;;;;;;5000442;28;20645;-72
2021/12/13 06:04:10;;;;;;;14.47;11.83;;;2.50;99.90;;;;;;5014601;28;20179;-72
2021/12/13 06:07:11;;;;;;;14.17;11.63;;;2.40;99.90;;;;;;5014057;28;20195;-72
2021/12/13 06:09:42;;;;;;;13.97;12.30;;;2.20;99.90;;;;;;5014010;28;20580;-71
2021/12/13 06:12:11;;;;;;;15.60;12.17;;;2.30;99.90;;;;;;5014574;28;20202;-72
2021/12/13 06:14:38;;;;;;;14.13;11.90;;;2.30;99.90;;;;;;4984883;28;20187;-72
2021/12/13 06:17:13;;;;;;;17.87;12.43;;;2.50;99.90;;;;;;4995628;28;20678;-72
2021/12/13 06:19:48;;;;;;;16.20;12.87;;;2.40;99.90;;;;;;4999672;28;20175;-71
2021/12/13 06:22:17;;;;;;;17.23;12.93;;;2.40;99.90;;;;;;5013058;28;20174;-72
2021/12/13 06:24:54;;;;;;;12.97;11.60;;;2.40;99.90;;;;;;5005601;28;20171;-72
2021/12/13 06:27:23;;;;;;;15.47;12.10;;;2.30;99.90;;;;;;4997095;28;20190;-72
2021/12/13 06:30:21;;;;;;;17.20;13.17;;;2.20;99.90;;;;;;5014703;28;20175;-73
2021/12/13 06:32:59;;;;;;;18.83;13.23;;;2.00;99.90;;;;;;5004679;28;20191;-73
2021/12/13 06:35:37;;;;;;;18.40;13.80;;;2.00;99.90;;;;;;4983933;28;20345;-73
2021/12/13 06:38:23;;;;;;;17.43;13.00;;;2.00;99.90;;;;;;4996710;28;20187;-73
2021/12/13 06:40:59;;;;;;;19.20;12.57;;;2.00;99.90;;;;;;5014663;28;20672;-73
2021/12/13 06:43:31;;;;;;;15.07;12.17;;;2.00;99.90;;;;;;5011877;28;20167;-73
2021/12/13 06:46:00;;;;;;;16.50;13.20;;;2.10;99.90;;;;;;4994048;28;20186;-73
2021/12/13 06:48:36;;;;;;;26.83;15.77;;;2.20;99.90;;;;;;5011201;28;20190;-73
2021/12/13 06:51:04;;;;;;;21.50;16.40;;;2.20;99.90;;;;;;5013793;28;20206;-73
2021/12/13 06:53:30;;;;;;;18.33;13.87;;;2.20;99.90;;;;;;5008230;28;20185;-73
2021/12/13 06:55:55;;;;;;;17.70;13.23;;;2.20;99.90;;;;;;5013835;28;20737;-73
2021/12/13 06:58:29;;;;;;;20.17;12.57;;;2.20;99.90;;;;;;5015866;28;20669;-73
2021/12/13 07:01:04;;;;;;;16.00;12.50;;;2.20;99.90;;;;;;5007970;28;20183;-72
2021/12/13 07:03:34;;;;;;;16.63;13.00;;;2.10;99.90;;;;;;5009797;28;20177;-72
2021/12/13 07:06:04;;;;;;;13.47;12.03;;;2.20;99.90;;;;;;4993231;28;20207;-73
2021/12/13 07:08:36;;;;;;;15.83;11.87;;;2.40;99.90;;;;;;5001776;28;20183;-74
2021/12/13 07:11:12;;;;;;;14.97;12.00;;;2.40;99.90;;;;;;5012744;28;20562;-72
2021/12/13 07:13:41;;;;;;;14.87;12.47;;;2.40;99.90;;;;;;4994160;28;20178;-72
2021/12/13 07:16:12;;;;;;;15.47;12.53;;;2.40;99.90;;;;;;5003915;28;20210;-71
2021/12/13 07:18:41;;;;;;;13.23;11.83;;;2.50;99.90;;;;;;4984715;28;20195;-72
2021/12/13 07:21:11;;;;;;;16.07;13.43;;;2.60;99.90;;;;;;5010086;28;20262;-73
2021/12/13 07:24:03;;;;;;;17.87;13.43;;;2.60;99.90;;;;;;5008242;28;20187;-72
2021/12/13 07:26:37;;;;;;;16.33;13.33;;;2.60;99.90;;;;;;4992293;28;20222;-72
2021/12/13 07:29:11;;;;;;;18.43;13.40;;;2.70;99.90;;;;;;5011841;28;20722;-73
2021/12/13 07:31:40;;;;;;;21.63;15.57;;;2.70;99.90;;;;;;4994332;28;20265;-73
2021/12/13 07:34:19;;;;;;;21.27;15.13;;;2.80;99.90;;;;;;5012773;28;20625;-73
2021/12/13 07:36:57;;;;;;;17.63;13.97;;;2.70;99.90;;;;;;5012599;28;20689;-73
2021/12/13 07:39:26;;;;;;;23.17;15.83;;;2.70;99.90;;;;;;5013002;28;20225;-73
2021/12/13 07:41:57;;;;;;;20.87;15.80;;;2.70;99.90;;;;;;5012523;28;20179;-73
2021/12/13 07:44:46;;;;;;;19.57;15.43;;;2.70;99.90;;;;;;5016364;28;20171;-73
2021/12/13 07:47:20;;;;;;;20.83;14.90;;;2.70;99.90;;;;;;5006109;28;20229;-73
2021/12/13 07:49:51;;;;;;;20.87;13.97;;;2.70;99.90;;;;;;5013253;28;20221;-73
2021/12/13 07:52:29;;;;;;;21.83;15.33;;;2.70;99.90;;;;;;5015416;28;20675;-72
2021/12/13 07:54:57;;;;;;;20.60;15.43;;;2.70;99.90;;;;;;5016187;28;20171;-73
2021/12/13 07:57:30;;;;;;;20.90;15.63;;;2.60;99.90;;;;;;5015501;28;20217;-72
2021/12/13 07:59:56;;;;;;;16.87;13.47;;;2.70;99.90;;;;;;4995784;28;20273;-73
2021/12/13 08:02:25;;;;;;;17.57;13.27;;;2.70;99.90;;;;;;4995844;28;20163;-73
2021/12/13 08:04:56;;;;;;;24.57;17.10;;;2.70;99.90;;;;;;5015589;28;20171;-73
2021/12/13 08:07:31;;;;;;;23.13;16.30;;;2.70;99.90;;;;;;5010338;28;20674;-73
2021/12/13 08:09:59;;;;;;;23.07;17.10;;;2.70;99.90;;;;;;5016084;28;20182;-73
2021/12/13 08:12:26;;;;;;;21.90;15.77;;;2.80;99.90;;;;;;5014963;28;21027;-73
2021/12/13 08:15:15;;;;;;;23.20;16.20;;;2.80;99.90;;;;;;5015250;28;20179;-73
2021/12/13 08:17:46;;;;;;;22.47;16.63;;;2.90;99.90;;;;;;5015838;28;20199;-73
2021/12/13 08:20:18;;;;;;;33.53;21.27;;;2.80;99.90;;;;;;5015244;28;20527;-73
2021/12/13 08:22:45;;;;;;;24.33;17.07;;;2.90;99.90;;;;;;5016066;28;20261;-72
2021/12/13 08:25:22;;;;;;;24.87;17.50;;;2.90;99.90;;;;;;4997941;28;20209;-73
2021/12/13 08:27:59;;;;;;;28.57;17.43;;;3.00;99.90;;;;;;5008271;28;20187;-73
2021/12/13 08:30:41;;;;;;;21.13;16.57;;;3.00;99.90;;;;;;4979965;28;20180;-73
2021/12/13 08:33:11;;;;;;;25.07;16.03;;;3.10;99.90;;;;;;4997473;28;20168;-73
2021/12/13 08:36:03;;;;;;;25.93;16.37;;;3.20;99.90;;;;;;4995676;28;20223;-72
2021/12/13 08:38:47;;;;;;;24.00;15.87;;;3.20;99.90;;;;;;4994981;28;20271;-73
2021/12/13 08:41:19;;;;;;;22.33;16.10;;;3.30;99.90;;;;;;4996053;28;20172;-74
2021/12/13 08:43:55;;;;;;;21.87;16.17;;;3.30;99.90;;;;;;4997272;28;20168;-73
2021/12/13 08:46:42;;;;;;;21.30;15.33;;;3.40;99.90;;;;;;4998842;28;20646;-72
2021/12/13 08:49:18;;;;;;;19.73;14.97;;;3.40;99.90;;;;;;4998668;28;20179;-72
2021/12/13 08:52:01;;;;;;;22.43;15.43;;;3.50;99.90;;;;;;5002843;28;20246;-74
2021/12/13 08:54:58;;;;;;;21.47;15.60;;;3.50;99.90;;;;;;5001096;28;20195;-72
2021/12/13 08:57:30;;;;;;;22.13;15.70;;;3.60;99.90;;;;;;5002959;28;20620;-73
2021/12/13 08:59:57;;;;;;;23.13;16.20;;;3.80;99.90;;;;;;4980598;28;20245;-73
2021/12/13 09:02:30;;;;;;;25.83;16.97;;;3.80;99.90;;;;;;4988360;28;20493;-73
2021/12/13 09:05:13;;;;;;;28.47;16.30;;;3.80;99.90;;;;;;4979195;28;20546;-73
2021/12/13 09:08:12;;;;;;;20.00;15.30;;;3.90;99.90;;;;;;4995380;28;20630;-73
2021/12/13 09:10:45;;;;;;;19.97;15.07;;;3.90;99.90;;;;;;4999527;28;20192;-74
2021/12/13 09:13:14;;;;;;;20.33;15.07;;;4.00;99.90;;;;;;4996797;28;20191;-74
2021/12/13 09:15:41;;;;;;;26.17;16.97;;;4.10;99.90;;;;;;4995079;28;20270;-73
2021/12/13 09:18:09;;;;;;;23.53;15.97;;;4.10;99.90;;;;;;4994351;28;20195;-72
2021/12/13 09:20:45;;;;;;;20.57;15.30;;;4.20;99.90;;;;;;4996472;28;20177;-73
2021/12/13 09:23:21;;;;;;;23.37;15.93;;;4.20;99.90;;;;;;4995947;28;20173;-74
2021/12/13 09:25:54;;;;;;;22.13;15.17;;;4.20;99.90;;;;;;4995464;28;20558;-72
2021/12/13 09:28:24;;;;;;;20.90;15.80;;;4.30;99.90;;;;;;4987448;28;20176;-73
2021/12/13 09:30:55;;;;;;;20.83;14.93;;;4.40;99.90;;;;;;4977046;28;20773;-73
2021/12/13 09:33:47;;;;;;;21.43;14.43;;;4.40;99.90;;;;;;5000724;28;20185;-73
2021/12/13 09:36:18;;;;;;;19.07;15.27;;;4.50;99.90;;;;;;4996890;28;20349;-73
2021/12/13 09:39:04;;;;;;;22.13;15.63;;;4.50;99.90;;;;;;4998029;28;20265;-73
2021/12/13 09:41:36;;;;;;;19.57;15.10;;;4.60;99.90;;;;;;5014871;28;20177;-73
2021/12/13 09:44:07;;;;;;;21.70;15.53;;;4.70;99.90;;;;;;4992188;28;20172;-73
2021/12/13 09:46:57;;;;;;;25.33;16.23;;;4.80;99.90;;;;;;4993607;28;20269;-73
2021/12/13 09:49:56;;;;;;;26.00;15.33;;;4.80;99.90;;;;;;4995981;28;20176;-73
2021/12/13 09:52:42;;;;;;;22.97;15.30;;;4.80;99.90;;;;;;4995206;28;20226;-73
2021/12/13 09:55:17;;;;;;;21.80;15.07;;;4.90;99.90;;;;;;4996339;28;20248;-74
2021/12/13 09:58:01;;;;;;;22.87;15.33;;;4.90;99.90;;;;;;4986605;28;20283;-74
2021/12/13 10:00:34;;;;;;;22.63;14.57;;;4.90;99.90;;;;;;4994773;28;20192;-74
2021/12/13 10:03:05;;;;;;;21.93;15.73;;;5.00;99.90;;;;;;4993611;28;20168;-73
2021/12/13 10:05:41;;;;;;;19.83;14.07;;;5.10;99.90;;;;;;4977464;28;20290;-72
2021/12/13 10:08:12;;;;;;;17.93;13.37;;;5.20;99.90;;;;;;4995867;28;20530;-73
2021/12/13 10:10:43;;;;;;;20.43;13.27;;;5.30;99.90;;;;;;5013796;28;20262;-73
2021/12/13 10:13:15;;;;;;;18.60;13.07;;;5.40;99.90;;;;;;5012548;28;20182;-72
2021/12/13 10:15:48;;;;;;;18.97;13.33;;;5.50;99.90;;;;;;5013095;28;20204;-73
2021/12/13 10:18:20;;;;;;;14.97;11.27;;;5.60;99.90;;;;;;5014269;28;20204;-73
2021/12/13 10:21:06;;;;;;;12.73;10.93;;;5.60;99.90;;;;;;5014244;28;20179;-73
2021/12/13 10:23:39;;;;;;;15.70;11.93;;;5.70;99.90;;;;;;5014179;28;20209;-72
2021/12/13 10:26:09;;;;;;;12.37;11.07;;;5.70;99.90;;;;;;5014144;28;20210;-73
2021/12/13 10:28:38;;;;;;;16.40;11.37;;;5.80;99.90;;;;;;5014000;28;20179;-72
2021/12/13 10:31:11;;;;;;;14.40;10.57;;;5.90;99.90;;;;;;4996023;28;20190;-73
2021/12/13 10:33:38;;;;;;;11.90;10.67;;;5.90;99.90;;;;;;4996405;28;20267;-73
2021/12/13 10:36:14;;;;;;;14.73;11.13;;;5.90;99.90;;;;;;4997275;28;20219;-74
2021/12/13 10:38:51;;;;;;;15.30;12.03;;;5.90;99.90;;;;;;5025967;28;20610;-76
2021/12/13 10:41:24;;;;;;;12.43;10.90;;;5.90;99.90;;;;;;5009829;28;20246;-76
2021/12/13 10:43:57;;;;;;;12.20;9.93;;;5.90;99.90;;;;;;4999648;28;20179;-76
2021/12/13 10:46:27;;;;;;;14.53;11.27;;;6.10;99.90;;;;;;4999557;28;20228;-76
2021/12/13 10:49:03;;;;;;;10.97;9.77;;;6.10;99.90;;;;;;5006861;28;20175;-76
2021/12/13 10:51:43;;;;;;;12.73;10.20;;;6.20;99.90;;;;;;4989043;28;20558;-76
2021/12/13 10:54:16;;;;;;;14.37;10.93;;;6.40;99.90;;;;;;5000479;28;20182;-77
2021/12/13 10:56:50;;;;;;;13.67;10.60;;;6.40;99.90;;;;;;4997127;28;20212;-76
2021/12/13 10:59:20;;;;;;;15.20;12.10;;;6.40;99.90;;;;;;4982640;28;20274;-76
2021/12/13 11:01:50;;;;;;;13.90;11.53;;;6.50;99.90;;;;;;5000855;28;20206;-77
2021/12/13 11:04:22;;;;;;;13.87;11.17;;;6.70;99.90;;;;;;5003442;28;20190;-76
2021/12/13 11:06:48;;;;;;;15.00;11.80;;;6.80;99.90;;;;;;5007304;28;20203;-77
2021/12/13 11:09:23;;;;;;;18.53;11.90;;;6.90;99.90;;;;;;4998647;28;20186;-77
2021/12/13 11:11:55;;;;;;;16.37;12.07;;;7.00;99.90;;;;;;4990350;28;20184;-77
2021/12/13 11:14:24;;;;;;;16.23;11.60;;;7.00;99.90;;;;;;4985616;28;20204;-76
2021/12/13 11:17:06;;;;;;;15.80;11.37;;;7.00;99.90;;;;;;5002958;28;20260;-76
2021/12/13 11:19:35;;;;;;;38.70;18.47;;;7.20;99.90;;;;;;5006769;28;20262;-76
2021/12/13 11:22:14;;;;;;;19.33;12.70;;;7.20;99.90;;;;;;5003947;28;20647;-77
2021/12/13 11:24:43;;;;;;;14.20;10.83;;;7.40;99.90;;;;;;5010810;28;20173;-77
2021/12/13 11:27:15;;;;;;;18.60;11.57;;;7.60;99.90;;;;;;5002923;28;20186;-77
2021/12/13 11:29:42;;;;;;;16.33;11.30;;;7.70;99.90;;;;;;5001057;28;20195;-77
2021/12/13 11:32:30;;;;;;;18.50;11.43;;;7.60;99.90;;;;;;5009752;28;20188;-76
2021/12/13 11:35:51;;;;;;;16.07;11.03;;;7.60;99.90;;;;;;4987125;28;20201;-77
2021/12/13 11:38:35;;;;;;;16.00;10.63;;;7.80;99.90;;;;;;5009447;28;20671;-76
2021/12/13 11:41:21;;;;;;;41.50;17.87;;;7.80;99.90;;;;;;4988117;28;20550;-77
2021/12/13 11:44:21;;;;;;;30.70;17.70;;;7.80;99.90;;;;;;5008462;28;20182;-76
2021/12/13 11:47:34;;;;;;;14.17;11.13;;;7.60;99.90;;;;;;4986177;28;20210;-76
2021/12/13 11:50:22;;;;;;;17.50;12.50;;;7.60;99.90;;;;;;4984164;28;20182;-76
2021/12/13 11:53:27;;;;;;;14.57;10.77;;;7.60;99.90;;;;;;5023296;28;20196;-77
2021/12/13 11:56:23;;;;;;;16.30;11.30;;;7.30;99.90;;;;;;5008991;28;20269;-77
2021/12/13 11:59:08;;;;;;;13.03;9.43;;;7.30;99.90;;;;;;5006042;28;20211;-77
2021/12/13 12:02:01;;;;;;;19.43;10.43;;;7.40;99.90;;;;;;4994544;28;20219;-77
2021/12/13 12:05:10;;;;;;;12.90;10.30;;;7.30;99.90;;;;;;4991916;28;20265;-77
2021/12/13 12:08:14;;;;;;;21.03;10.80;;;7.40;99.90;;;;;;5003016;28;20189;-77
2021/12/13 12:11:22;;;;;;;16.00;10.30;;;7.20;99.90;;;;;;5004104;28;20181;-76
2021/12/13 12:14:05;;;;;;;13.10;9.97;;;7.20;99.90;;;;;;5009987;28;20526;-76
2021/12/13 12:16:42;;;;;;;15.07;9.40;;;7.20;99.90;;;;;;5013399;28;20619;-77
2021/12/13 12:19:14;;;;;;;15.70;10.60;;;7.20;99.90;;;;;;5003108;28;20276;-76
2021/12/13 12:21:45;;;;;;;10.43;8.40;;;7.30;99.90;;;;;;4987756;28;20589;-76
2021/12/13 12:24:39;;;;;;;14.20;9.70;;;7.30;99.90;;;;;;5004544;28;20193;-77
2021/12/13 12:27:27;;;;;;;11.70;8.73;;;7.40;99.90;;;;;;5007406;28;20679;-76
2021/12/13 12:29:56;;;;;;;12.33;9.50;;;7.40;99.90;;;;;;5009221;28;20186;-76
2021/12/13 12:32:27;;;;;;;12.17;8.23;;;7.40;99.90;;;;;;4989739;28;20175;-77
2021/12/13 12:35:11;;;;;;;12.53;8.10;;;7.40;99.90;;;;;;4988557;28;20196;-75
2021/12/13 12:38:07;;;;;;;15.00;8.27;;;7.40;99.90;;;;;;5011697;28;20213;-77
2021/12/13 12:40:47;;;;;;;11.90;8.67;;;7.40;99.90;;;;;;4986750;28;20175;-76
2021/12/13 12:43:19;;;;;;;11.90;7.97;;;7.40;99.90;;;;;;4994929;28;20570;-75
2021/12/13 12:45:52;;;;;;;10.20;8.23;;;7.50;99.90;;;;;;4998365;28;20200;-74
2021/12/13 12:48:25;;;;;;;11.57;7.83;;;7.40;99.90;;;;;;5026591;28;20222;-74
2021/12/13 12:51:06;;;;;;;12.50;8.30;;;7.40;99.90;;;;;;5026379;28;20181;-77
2021/12/13 12:53:37;;;;;;;12.40;8.20;;;7.50;99.90;;;;;;5015883;28;20177;-77
2021/12/13 12:56:15;;;;;;;9.13;7.33;;;7.30;99.90;;;;;;4998500;28;20205;-76
2021/12/13 12:59:08;;;;;;;10.23;7.47;;;7.30;99.90;;;;;;5012463;28;20203;-77
2021/12/13 13:01:41;;;;;;;12.67;7.17;;;7.30;99.90;;;;;;5010139;28;20251;-77
2021/12/13 13:04:23;;;;;;;9.00;7.53;;;7.40;99.90;;;;;;4998322;28;20196;-76
2021/12/13 13:07:09;;;;;;;12.20;7.53;;;7.30;99.90;;;;;;5012121;28;20615;-76
2021/12/13 13:09:49;;;;;;;8.47;7.23;;;7.40;99.90;;;;;;5015704;28;20600;-75
2021/12/13 13:12:45;;;;;;;10.37;7.70;;;7.50;99.90;;;;;;5015442;28;20189;-77
2021/12/13 13:15:13;;;;;;;8.47;7.40;;;7.40;99.90;;;;;;4981485;28;20280;-75
2021/12/13 13:17:56;;;;;;;8.50;7.10;;;7.50;99.90;;;;;;5014714;28;20522;-74
2021/12/13 13:20:31;;;;;;;9.70;7.50;;;7.50;99.90;;;;;;4995505;28;20209;-74
2021/12/13 13:22:58;;;;;;;9.57;6.97;;;7.50;99.90;;;;;;5013837;28;20173;-74
2021/12/13 13:25:29;;;;;;;10.63;7.37;;;7.50;99.90;;;;;;5014559;28;20226;-74
2021/12/13 13:27:56;;;;;;;8.50;7.43;;;7.50;99.90;;;;;;4993723;28;20205;-74
2021/12/13 13:30:32;;;;;;;9.17;8.23;;;7.50;99.90;;;;;;5010705;28;20177;-74
2021/12/13 13:32:57;;;;;;;10.50;7.87;;;7.50;99.90;;;;;;5011722;28;20202;-74
2021/12/13 13:35:24;;;;;;;10.90;8.47;;;7.50;99.90;;;;;;5014525;28;20778;-74